»·PEaware :: N849ZT L88-KSBP

N849ZT :: L88-KSBP

FLIGHT INFORMATION

Flight Status: Arrived
Operator: Privately registered:
United States
More flights under this callsign
Pilot: Drake C. (45364)
Aircraft: CESSNA 172 SKYHAWK
(C172)
More flights by this aircraft type
Origin: L88 New Cuyama
United States
Destination: KSBP San Luis Co Regl
United States
More flights between these airports :: More routes between these airports
Route:
File this flight plan on PilotEdge
Remarks:
Altitude:
(Current/Filed)
6,500ft
Speed:
(Current/Filed)
110kts
Departed: 23-Oct-23 12:23 PM
Arrived: 23-Oct-23 01:12 PM
Distance/Time
Traveled:
50nm/0:48
Distance/Time
To Go:
Arrived

Flight Plot

Page will automatically refresh every two minutes.


Map Options




Map Legend


Flown Route
Filed Route
Departure Airport
Arrival Airport
Navaid (VOR, NDB)
Fix

Horizontal Profiles

Position Reports

Time Latitude Longitude Heading Altitude Ground
Speed
23-Oct-23 12:15 34.943161 -119.690984 24 2150ft 0kts
23-Oct-23 12:16 34.943227 -119.691115 184 2150ft 5kts
23-Oct-23 12:17 34.942731 -119.691227 197 2150ft 0kts
23-Oct-23 12:18 34.942731 -119.691226 197 2150ft 0kts
23-Oct-23 12:19 34.942731 -119.691226 197 2150ft 0kts
23-Oct-23 12:20 34.942731 -119.691226 198 2150ft 0kts
23-Oct-23 12:21 34.942262 -119.691205 122 2150ft 8kts
23-Oct-23 12:22 34.935170 -119.672536 113 2467ft 86kts
23-Oct-23 12:23 34.918494 -119.655845 202 3102ft 84kts
23-Oct-23 12:24 34.917604 -119.679535 299 3654ft 85kts
23-Oct-23 12:25 34.930685 -119.703322 302 4366ft 85kts
23-Oct-23 12:26 34.943221 -119.729056 300 4798ft 90kts
23-Oct-23 12:27 34.956009 -119.754980 297 5291ft 91kts
23-Oct-23 12:28 34.966474 -119.782788 290 5799ft 90kts
23-Oct-23 12:29 34.976105 -119.810987 294 6289ft 90kts
23-Oct-23 12:30 34.987406 -119.838742 299 6495ft 93kts
23-Oct-23 12:31 35.002156 -119.866100 304 6511ft 98kts
23-Oct-23 12:32 35.018296 -119.893422 304 6488ft 98kts
23-Oct-23 12:33 35.033665 -119.921222 301 6504ft 99kts
23-Oct-23 12:34 35.048443 -119.949896 305 6498ft 99kts
23-Oct-23 12:35 35.065177 -119.976528 309 6479ft 98kts
23-Oct-23 12:36 35.081105 -120.003573 301 6498ft 98kts
23-Oct-23 12:37 35.095458 -120.031947 301 6497ft 97kts
23-Oct-23 12:38 35.109931 -120.060142 304 6556ft 97kts
23-Oct-23 12:39 35.128327 -120.085323 304 6528ft 99kts
23-Oct-23 12:40 35.119688 -120.114804 242 6536ft 98kts
23-Oct-23 12:41 35.105329 -120.143893 241 6517ft 101kts
23-Oct-23 12:42 35.091502 -120.173058 242 6519ft 99kts
23-Oct-23 12:43 35.077758 -120.202616 242 6525ft 99kts
23-Oct-23 12:44 35.063571 -120.231613 243 6514ft 99kts
23-Oct-23 12:45 35.050341 -120.261431 241 6506ft 101kts
23-Oct-23 12:46 35.037125 -120.291350 243 6507ft 100kts
23-Oct-23 12:47 35.023961 -120.321432 242 6505ft 101kts
23-Oct-23 12:48 35.010832 -120.351447 242 6505ft 100kts
23-Oct-23 12:49 34.997670 -120.381525 242 6508ft 101kts
23-Oct-23 12:50 35.003389 -120.411177 319 6552ft 101kts
23-Oct-23 12:51 35.027223 -120.430160 328 6504ft 102kts
23-Oct-23 12:52 35.051552 -120.447850 326 6512ft 102kts
23-Oct-23 12:53 35.075047 -120.467389 323 6487ft 101kts
23-Oct-23 12:54 35.097173 -120.486676 324 5865ft 95kts
23-Oct-23 12:55 35.117404 -120.507318 316 5162ft 95kts
23-Oct-23 12:56 35.137251 -120.527454 317 4500ft 91kts
23-Oct-23 12:57 35.152535 -120.549934 273 3835ft 85kts
23-Oct-23 12:58 35.143986 -120.576892 241 3303ft 87kts
23-Oct-23 12:59 35.130360 -120.600868 239 2820ft 87kts
23-Oct-23 13:00 35.119485 -120.626419 245 2331ft 85kts
23-Oct-23 13:01 35.107013 -120.649349 203 1917ft 86kts
23-Oct-23 13:02 35.088628 -120.653090 119 1463ft 83kts
23-Oct-23 13:03 35.104503 -120.642492 9 1267ft 81kts
23-Oct-23 13:04 35.127912 -120.639325 1 1781ft 84kts
23-Oct-23 13:05 35.153601 -120.639155 358 2120ft 90kts
23-Oct-23 13:06 35.178699 -120.639073 6 1780ft 88kts
23-Oct-23 13:07 35.182573 -120.622080 170 1653ft 81kts
23-Oct-23 13:08 35.182228 -120.633804 2 1587ft 87kts
23-Oct-23 13:09 35.204813 -120.629175 13 1349ft 81kts
23-Oct-23 13:10 35.225029 -120.623554 336 641ft 72kts
23-Oct-23 13:11 35.236149 -120.639002 301 200ft 26kts
23-Oct-23 13:12 35.237544 -120.639921 8 194ft 0kts
23-Oct-23 13:13 35.237552 -120.639560 128 194ft 7kts
23-Oct-23 13:14 35.235858 -120.636435 86 207ft 9kts
23-Oct-23 13:15 35.236224 -120.635946 46 208ft 0kts

Navigation Log

Ident Type
Flight plan parsing failed, navigation log unavailable